sensor_id;sensor_type;location;lat;lon;timestamp;P1;durP1;ratioP1;P2;durP2;ratioP2
27428;SDS011;14881;48.092;11.574;2023-05-18T00:01:57;13.32;;;7.40;;
27428;SDS011;14881;48.092;11.574;2023-05-18T00:04:23;11.70;;;7.75;;
27428;SDS011;14881;48.092;11.574;2023-05-18T00:06:51;11.38;;;7.82;;
27428;SDS011;14881;48.092;11.574;2023-05-18T00:09:21;11.45;;;7.75;;
27428;SDS011;14881;48.092;11.574;2023-05-18T00:11:49;9.35;;;6.88;;
27428;SDS011;14881;48.092;11.574;2023-05-18T00:14:15;13.73;;;7.90;;
27428;SDS011;14881;48.092;11.574;2023-05-18T00:16:41;12.63;;;7.22;;
27428;SDS011;14881;48.092;11.574;2023-05-18T00:19:08;15.73;;;7.93;;
27428;SDS011;14881;48.092;11.574;2023-05-18T00:21:34;14.32;;;7.53;;
27428;SDS011;14881;48.092;11.574;2023-05-18T00:24:01;12.18;;;7.70;;
27428;SDS011;14881;48.092;11.574;2023-05-18T00:26:28;11.23;;;7.93;;
27428;SDS011;14881;48.092;11.574;2023-05-18T00:28:55;14.02;;;7.70;;
27428;SDS011;14881;48.092;11.574;2023-05-18T00:31:21;12.68;;;7.95;;
27428;SDS011;14881;48.092;11.574;2023-05-18T00:33:47;18.52;;;7.97;;
27428;SDS011;14881;48.092;11.574;2023-05-18T00:36:14;15.20;;;8.07;;
27428;SDS011;14881;48.092;11.574;2023-05-18T00:38:40;14.50;;;8.43;;
27428;SDS011;14881;48.092;11.574;2023-05-18T00:41:07;13.60;;;8.20;;
27428;SDS011;14881;48.092;11.574;2023-05-18T00:43:33;13.35;;;7.88;;
27428;SDS011;14881;48.092;11.574;2023-05-18T00:46:00;12.32;;;8.18;;
27428;SDS011;14881;48.092;11.574;2023-05-18T00:48:27;10.55;;;7.20;;
27428;SDS011;14881;48.092;11.574;2023-05-18T00:50:53;14.75;;;8.02;;
27428;SDS011;14881;48.092;11.574;2023-05-18T00:53:19;11.20;;;7.57;;
27428;SDS011;14881;48.092;11.574;2023-05-18T00:55:46;10.93;;;7.50;;
27428;SDS011;14881;48.092;11.574;2023-05-18T00:58:13;14.88;;;7.55;;
27428;SDS011;14881;48.092;11.574;2023-05-18T01:00:40;12.55;;;8.30;;
27428;SDS011;14881;48.092;11.574;2023-05-18T01:03:07;9.10;;;7.15;;
27428;SDS011;14881;48.092;11.574;2023-05-18T01:05:35;12.57;;;7.97;;
27428;SDS011;14881;48.092;11.574;2023-05-18T01:08:02;15.75;;;7.72;;
27428;SDS011;14881;48.092;11.574;2023-05-18T01:10:29;11.30;;;8.40;;
27428;SDS011;14881;48.092;11.574;2023-05-18T01:12:59;16.00;;;7.68;;
27428;SDS011;14881;48.092;11.574;2023-05-18T01:15:31;13.80;;;8.20;;
27428;SDS011;14881;48.092;11.574;2023-05-18T01:18:03;14.18;;;7.78;;
27428;SDS011;14881;48.092;11.574;2023-05-18T01:20:40;13.50;;;9.13;;
27428;SDS011;14881;48.092;11.574;2023-05-18T01:23:16;13.45;;;7.95;;
27428;SDS011;14881;48.092;11.574;2023-05-18T01:26:21;11.13;;;8.43;;
27428;SDS011;14881;48.092;11.574;2023-05-18T01:28:49;9.40;;;7.72;;
27428;SDS011;14881;48.092;11.574;2023-05-18T01:31:17;12.60;;;7.82;;
27428;SDS011;14881;48.092;11.574;2023-05-18T01:33:44;13.48;;;7.78;;
27428;SDS011;14881;48.092;11.574;2023-05-18T01:36:11;13.73;;;7.40;;
27428;SDS011;14881;48.092;11.574;2023-05-18T01:38:37;11.95;;;7.75;;
27428;SDS011;14881;48.092;11.574;2023-05-18T01:41:10;14.35;;;7.85;;
27428;SDS011;14881;48.092;11.574;2023-05-18T01:43:42;11.25;;;7.80;;
27428;SDS011;14881;48.092;11.574;2023-05-18T01:46:14;12.38;;;8.57;;
27428;SDS011;14881;48.092;11.574;2023-05-18T01:48:47;13.88;;;8.38;;
27428;SDS011;14881;48.092;11.574;2023-05-18T01:51:19;16.20;;;8.10;;
27428;SDS011;14881;48.092;11.574;2023-05-18T01:53:51;15.80;;;8.68;;
27428;SDS011;14881;48.092;11.574;2023-05-18T01:56:24;10.68;;;7.82;;
27428;SDS011;14881;48.092;11.574;2023-05-18T01:58:52;11.73;;;8.05;;
27428;SDS011;14881;48.092;11.574;2023-05-18T02:01:19;13.63;;;8.77;;
27428;SDS011;14881;48.092;11.574;2023-05-18T02:03:47;14.00;;;8.68;;
27428;SDS011;14881;48.092;11.574;2023-05-18T02:06:14;13.55;;;7.97;;
27428;SDS011;14881;48.092;11.574;2023-05-18T02:08:40;15.45;;;8.90;;
27428;SDS011;14881;48.092;11.574;2023-05-18T02:11:07;16.45;;;9.02;;
27428;SDS011;14881;48.092;11.574;2023-05-18T02:13:33;24.15;;;9.35;;
27428;SDS011;14881;48.092;11.574;2023-05-18T02:16:00;14.00;;;8.75;;
27428;SDS011;14881;48.092;11.574;2023-05-18T02:18:28;19.38;;;8.77;;
27428;SDS011;14881;48.092;11.574;2023-05-18T02:20:59;16.55;;;9.50;;
27428;SDS011;14881;48.092;11.574;2023-05-18T02:23:25;11.77;;;8.77;;
27428;SDS011;14881;48.092;11.574;2023-05-18T02:25:52;16.40;;;9.25;;
27428;SDS011;14881;48.092;11.574;2023-05-18T02:28:20;16.38;;;9.68;;
27428;SDS011;14881;48.092;11.574;2023-05-18T02:30:46;15.30;;;10.25;;
27428;SDS011;14881;48.092;11.574;2023-05-18T02:33:13;21.77;;;10.77;;
27428;SDS011;14881;48.092;11.574;2023-05-18T02:35:40;18.52;;;11.15;;
27428;SDS011;14881;48.092;11.574;2023-05-18T02:38:06;22.65;;;11.65;;
27428;SDS011;14881;48.092;11.574;2023-05-18T02:40:32;16.98;;;10.90;;
27428;SDS011;14881;48.092;11.574;2023-05-18T02:42:59;21.02;;;11.05;;
27428;SDS011;14881;48.092;11.574;2023-05-18T02:45:25;14.23;;;10.50;;
27428;SDS011;14881;48.092;11.574;2023-05-18T02:47:52;20.38;;;10.30;;
27428;SDS011;14881;48.092;11.574;2023-05-18T02:50:19;18.85;;;10.38;;
27428;SDS011;14881;48.092;11.574;2023-05-18T02:52:46;20.88;;;10.68;;
27428;SDS011;14881;48.092;11.574;2023-05-18T02:55:14;16.65;;;10.60;;
27428;SDS011;14881;48.092;11.574;2023-05-18T02:57:41;22.83;;;10.43;;
27428;SDS011;14881;48.092;11.574;2023-05-18T03:00:12;18.92;;;11.40;;
27428;SDS011;14881;48.092;11.574;2023-05-18T03:02:41;16.98;;;11.10;;
27428;SDS011;14881;48.092;11.574;2023-05-18T03:05:08;19.80;;;11.07;;
27428;SDS011;14881;48.092;11.574;2023-05-18T03:07:36;16.63;;;10.27;;
27428;SDS011;14881;48.092;11.574;2023-05-18T03:10:02;21.02;;;11.35;;
27428;SDS011;14881;48.092;11.574;2023-05-18T03:12:29;21.75;;;10.88;;
27428;SDS011;14881;48.092;11.574;2023-05-18T03:14:55;16.75;;;11.25;;
27428;SDS011;14881;48.092;11.574;2023-05-18T03:17:22;18.40;;;11.40;;
27428;SDS011;14881;48.092;11.574;2023-05-18T03:19:48;19.20;;;11.18;;
27428;SDS011;14881;48.092;11.574;2023-05-18T03:22:15;19.80;;;11.73;;
27428;SDS011;14881;48.092;11.574;2023-05-18T03:24:42;16.20;;;11.15;;
27428;SDS011;14881;48.092;11.574;2023-05-18T03:27:09;17.90;;;11.52;;
27428;SDS011;14881;48.092;11.574;2023-05-18T03:29:37;20.73;;;11.65;;
27428;SDS011;14881;48.092;11.574;2023-05-18T03:32:04;16.02;;;10.60;;
27428;SDS011;14881;48.092;11.574;2023-05-18T03:34:30;22.45;;;11.10;;
27428;SDS011;14881;48.092;11.574;2023-05-18T03:36:57;23.08;;;10.38;;
27428;SDS011;14881;48.092;11.574;2023-05-18T03:39:24;15.52;;;9.93;;
27428;SDS011;14881;48.092;11.574;2023-05-18T03:41:51;14.00;;;9.75;;
27428;SDS011;14881;48.092;11.574;2023-05-18T03:44:17;17.40;;;10.38;;
27428;SDS011;14881;48.092;11.574;2023-05-18T03:46:44;15.95;;;9.95;;
27428;SDS011;14881;48.092;11.574;2023-05-18T03:49:10;16.67;;;10.50;;
27428;SDS011;14881;48.092;11.574;2023-05-18T03:51:37;19.25;;;10.75;;
27428;SDS011;14881;48.092;11.574;2023-05-18T03:54:03;14.98;;;10.65;;
27428;SDS011;14881;48.092;11.574;2023-05-18T03:56:30;15.82;;;10.13;;
27428;SDS011;14881;48.092;11.574;2023-05-18T03:58:57;17.80;;;10.88;;
27428;SDS011;14881;48.092;11.574;2023-05-18T04:01:23;15.00;;;10.55;;
27428;SDS011;14881;48.092;11.574;2023-05-18T04:03:50;15.82;;;9.93;;
27428;SDS011;14881;48.092;11.574;2023-05-18T04:06:21;18.92;;;11.70;;
27428;SDS011;14881;48.092;11.574;2023-05-18T04:08:48;18.33;;;10.32;;
27428;SDS011;14881;48.092;11.574;2023-05-18T04:11:14;16.27;;;11.55;;
27428;SDS011;14881;48.092;11.574;2023-05-18T04:13:41;18.38;;;10.85;;
27428;SDS011;14881;48.092;11.574;2023-05-18T04:16:08;18.83;;;12.02;;
27428;SDS011;14881;48.092;11.574;2023-05-18T04:18:37;18.45;;;10.88;;
27428;SDS011;14881;48.092;11.574;2023-05-18T04:21:04;19.55;;;11.57;;
27428;SDS011;14881;48.092;11.574;2023-05-18T04:23:31;18.30;;;11.60;;
27428;SDS011;14881;48.092;11.574;2023-05-18T04:26:03;18.13;;;12.05;;
27428;SDS011;14881;48.092;11.574;2023-05-18T04:28:30;18.13;;;11.52;;
27428;SDS011;14881;48.092;11.574;2023-05-18T04:30:57;24.70;;;12.13;;
27428;SDS011;14881;48.092;11.574;2023-05-18T04:33:25;18.73;;;11.63;;
27428;SDS011;14881;48.092;11.574;2023-05-18T04:35:51;17.65;;;11.48;;
27428;SDS011;14881;48.092;11.574;2023-05-18T04:38:19;16.90;;;12.35;;
27428;SDS011;14881;48.092;11.574;2023-05-18T04:40:47;18.70;;;12.18;;
27428;SDS011;14881;48.092;11.574;2023-05-18T04:43:14;18.35;;;12.52;;
27428;SDS011;14881;48.092;11.574;2023-05-18T04:45:43;19.83;;;13.30;;
27428;SDS011;14881;48.092;11.574;2023-05-18T04:48:11;17.92;;;13.13;;
27428;SDS011;14881;48.092;11.574;2023-05-18T04:50:39;19.40;;;14.05;;
27428;SDS011;14881;48.092;11.574;2023-05-18T04:53:06;25.80;;;14.27;;
27428;SDS011;14881;48.092;11.574;2023-05-18T04:55:33;28.17;;;16.15;;
27428;SDS011;14881;48.092;11.574;2023-05-18T04:58:00;24.83;;;13.95;;
27428;SDS011;14881;48.092;11.574;2023-05-18T05:00:28;22.50;;;14.88;;
27428;SDS011;14881;48.092;11.574;2023-05-18T05:02:55;25.13;;;14.98;;
27428;SDS011;14881;48.092;11.574;2023-05-18T05:05:23;22.42;;;14.82;;
27428;SDS011;14881;48.092;11.574;2023-05-18T05:07:51;19.77;;;14.82;;
27428;SDS011;14881;48.092;11.574;2023-05-18T05:10:17;25.15;;;15.85;;
27428;SDS011;14881;48.092;11.574;2023-05-18T05:12:44;23.48;;;15.95;;
27428;SDS011;14881;48.092;11.574;2023-05-18T05:15:14;22.83;;;14.80;;
27428;SDS011;14881;48.092;11.574;2023-05-18T05:17:41;31.02;;;17.80;;
27428;SDS011;14881;48.092;11.574;2023-05-18T05:20:07;23.42;;;14.77;;
27428;SDS011;14881;48.092;11.574;2023-05-18T05:22:34;21.38;;;15.50;;
27428;SDS011;14881;48.092;11.574;2023-05-18T05:25:01;19.95;;;13.57;;
27428;SDS011;14881;48.092;11.574;2023-05-18T05:27:31;17.83;;;12.65;;
27428;SDS011;14881;48.092;11.574;2023-05-18T05:29:57;18.02;;;11.55;;
27428;SDS011;14881;48.092;11.574;2023-05-18T05:32:23;15.77;;;11.35;;
27428;SDS011;14881;48.092;11.574;2023-05-18T05:34:50;18.70;;;11.48;;
27428;SDS011;14881;48.092;11.574;2023-05-18T05:37:16;18.00;;;10.68;;
27428;SDS011;14881;48.092;11.574;2023-05-18T05:39:43;14.75;;;10.82;;
27428;SDS011;14881;48.092;11.574;2023-05-18T05:42:11;16.75;;;10.85;;
27428;SDS011;14881;48.092;11.574;2023-05-18T05:44:37;14.05;;;9.88;;
27428;SDS011;14881;48.092;11.574;2023-05-18T05:47:05;15.27;;;9.90;;
27428;SDS011;14881;48.092;11.574;2023-05-18T05:49:32;12.88;;;8.95;;
27428;SDS011;14881;48.092;11.574;2023-05-18T05:51:59;15.20;;;9.38;;
27428;SDS011;14881;48.092;11.574;2023-05-18T05:54:26;14.02;;;8.52;;
27428;SDS011;14881;48.092;11.574;2023-05-18T05:56:52;12.43;;;8.25;;
27428;SDS011;14881;48.092;11.574;2023-05-18T05:59:19;15.25;;;8.10;;
27428;SDS011;14881;48.092;11.574;2023-05-18T06:01:46;11.95;;;8.80;;
27428;SDS011;14881;48.092;11.574;2023-05-18T06:04:13;14.90;;;8.35;;
27428;SDS011;14881;48.092;11.574;2023-05-18T06:06:42;14.77;;;7.78;;
27428;SDS011;14881;48.092;11.574;2023-05-18T06:09:12;11.73;;;7.78;;
27428;SDS011;14881;48.092;11.574;2023-05-18T06:11:39;13.98;;;7.80;;
27428;SDS011;14881;48.092;11.574;2023-05-18T06:14:05;11.13;;;7.78;;
27428;SDS011;14881;48.092;11.574;2023-05-18T06:16:32;15.07;;;7.82;;
27428;SDS011;14881;48.092;11.574;2023-05-18T06:18:59;12.57;;;7.72;;
27428;SDS011;14881;48.092;11.574;2023-05-18T06:21:25;12.85;;;7.85;;
27428;SDS011;14881;48.092;11.574;2023-05-18T06:23:51;13.88;;;7.93;;
27428;SDS011;14881;48.092;11.574;2023-05-18T06:26:18;13.57;;;7.22;;
27428;SDS011;14881;48.092;11.574;2023-05-18T06:28:44;13.73;;;7.45;;
27428;SDS011;14881;48.092;11.574;2023-05-18T06:31:11;11.85;;;6.75;;
27428;SDS011;14881;48.092;11.574;2023-05-18T06:33:38;12.07;;;7.70;;
27428;SDS011;14881;48.092;11.574;2023-05-18T06:36:04;12.68;;;7.03;;
27428;SDS011;14881;48.092;11.574;2023-05-18T06:38:31;13.60;;;7.43;;
27428;SDS011;14881;48.092;11.574;2023-05-18T06:40:57;11.70;;;6.57;;
27428;SDS011;14881;48.092;11.574;2023-05-18T06:43:24;11.60;;;6.75;;
27428;SDS011;14881;48.092;11.574;2023-05-18T06:45:52;15.25;;;6.82;;
27428;SDS011;14881;48.092;11.574;2023-05-18T06:48:19;12.88;;;5.78;;
27428;SDS011;14881;48.092;11.574;2023-05-18T06:50:47;11.00;;;6.00;;
27428;SDS011;14881;48.092;11.574;2023-05-18T06:53:14;14.30;;;6.55;;
27428;SDS011;14881;48.092;11.574;2023-05-18T06:55:40;11.63;;;5.97;;
27428;SDS011;14881;48.092;11.574;2023-05-18T06:58:06;12.70;;;6.45;;
27428;SDS011;14881;48.092;11.574;2023-05-18T07:00:33;15.02;;;5.38;;
27428;SDS011;14881;48.092;11.574;2023-05-18T07:02:59;13.13;;;5.53;;
27428;SDS011;14881;48.092;11.574;2023-05-18T07:05:26;13.45;;;5.60;;
27428;SDS011;14881;48.092;11.574;2023-05-18T07:07:53;12.25;;;5.82;;
27428;SDS011;14881;48.092;11.574;2023-05-18T07:10:20;11.15;;;5.50;;
27428;SDS011;14881;48.092;11.574;2023-05-18T07:12:47;13.27;;;5.15;;
27428;SDS011;14881;48.092;11.574;2023-05-18T07:15:13;13.05;;;5.25;;
27428;SDS011;14881;48.092;11.574;2023-05-18T07:17:40;12.15;;;5.55;;
27428;SDS011;14881;48.092;11.574;2023-05-18T07:20:07;10.70;;;5.13;;
27428;SDS011;14881;48.092;11.574;2023-05-18T07:22:34;11.75;;;5.07;;
27428;SDS011;14881;48.092;11.574;2023-05-18T07:25:01;15.52;;;5.10;;
27428;SDS011;14881;48.092;11.574;2023-05-18T07:27:28;8.98;;;4.63;;
27428;SDS011;14881;48.092;11.574;2023-05-18T07:29:54;12.68;;;4.95;;
27428;SDS011;14881;48.092;11.574;2023-05-18T07:32:21;9.40;;;5.13;;
27428;SDS011;14881;48.092;11.574;2023-05-18T07:34:47;12.02;;;5.00;;
27428;SDS011;14881;48.092;11.574;2023-05-18T07:37:14;8.82;;;4.72;;
27428;SDS011;14881;48.092;11.574;2023-05-18T07:39:40;8.18;;;5.15;;
27428;SDS011;14881;48.092;11.574;2023-05-18T07:42:07;8.52;;;4.82;;
27428;SDS011;14881;48.092;11.574;2023-05-18T07:44:34;12.00;;;4.93;;
27428;SDS011;14881;48.092;11.574;2023-05-18T07:47:00;11.23;;;5.35;;
27428;SDS011;14881;48.092;11.574;2023-05-18T07:49:27;8.05;;;4.20;;
27428;SDS011;14881;48.092;11.574;2023-05-18T07:51:53;11.13;;;4.72;;
27428;SDS011;14881;48.092;11.574;2023-05-18T07:54:20;9.02;;;4.82;;
27428;SDS011;14881;48.092;11.574;2023-05-18T07:56:46;10.73;;;4.75;;
27428;SDS011;14881;48.092;11.574;2023-05-18T07:59:13;10.13;;;4.13;;
27428;SDS011;14881;48.092;11.574;2023-05-18T08:01:40;9.07;;;3.75;;
27428;SDS011;14881;48.092;11.574;2023-05-18T08:04:09;9.18;;;4.13;;
27428;SDS011;14881;48.092;11.574;2023-05-18T08:06:36;8.20;;;4.18;;
27428;SDS011;14881;48.092;11.574;2023-05-18T08:09:02;15.57;;;4.90;;
27428;SDS011;14881;48.092;11.574;2023-05-18T08:11:29;7.93;;;4.28;;
27428;SDS011;14881;48.092;11.574;2023-05-18T08:13:55;11.32;;;5.07;;
27428;SDS011;14881;48.092;11.574;2023-05-18T08:16:22;7.35;;;4.45;;
27428;SDS011;14881;48.092;11.574;2023-05-18T08:18:48;10.82;;;4.05;;
27428;SDS011;14881;48.092;11.574;2023-05-18T08:21:15;10.23;;;4.50;;
27428;SDS011;14881;48.092;11.574;2023-05-18T08:23:42;16.83;;;4.70;;
27428;SDS011;14881;48.092;11.574;2023-05-18T08:26:08;8.73;;;4.53;;
27428;SDS011;14881;48.092;11.574;2023-05-18T08:28:39;8.73;;;4.10;;
27428;SDS011;14881;48.092;11.574;2023-05-18T08:31:05;10.32;;;4.78;;
27428;SDS011;14881;48.092;11.574;2023-05-18T08:33:33;9.18;;;4.45;;
27428;SDS011;14881;48.092;11.574;2023-05-18T08:35:59;7.72;;;4.63;;
27428;SDS011;14881;48.092;11.574;2023-05-18T08:38:25;9.13;;;4.70;;
27428;SDS011;14881;48.092;11.574;2023-05-18T08:40:56;8.88;;;4.47;;
27428;SDS011;14881;48.092;11.574;2023-05-18T08:43:27;10.23;;;4.53;;
27428;SDS011;14881;48.092;11.574;2023-05-18T08:45:59;11.13;;;4.80;;
27428;SDS011;14881;48.092;11.574;2023-05-18T08:48:30;8.68;;;4.28;;
27428;SDS011;14881;48.092;11.574;2023-05-18T08:50:58;9.38;;;4.28;;
27428;SDS011;14881;48.092;11.574;2023-05-18T08:53:28;9.25;;;4.65;;
27428;SDS011;14881;48.092;11.574;2023-05-18T08:55:57;11.32;;;4.15;;
27428;SDS011;14881;48.092;11.574;2023-05-18T08:58:26;8.48;;;4.88;;
27428;SDS011;14881;48.092;11.574;2023-05-18T09:00:59;9.23;;;4.63;;
27428;SDS011;14881;48.092;11.574;2023-05-18T09:03:25;13.63;;;4.63;;
27428;SDS011;14881;48.092;11.574;2023-05-18T09:05:53;9.55;;;4.60;;
27428;SDS011;14881;48.092;11.574;2023-05-18T09:08:22;10.35;;;4.60;;
27428;SDS011;14881;48.092;11.574;2023-05-18T09:10:49;11.27;;;4.90;;
27428;SDS011;14881;48.092;11.574;2023-05-18T09:13:17;11.65;;;4.88;;
27428;SDS011;14881;48.092;11.574;2023-05-18T09:15:44;6.40;;;4.65;;
27428;SDS011;14881;48.092;11.574;2023-05-18T09:18:11;9.63;;;4.30;;
27428;SDS011;14881;48.092;11.574;2023-05-18T09:20:38;10.52;;;4.82;;
27428;SDS011;14881;48.092;11.574;2023-05-18T09:23:04;10.45;;;4.43;;
27428;SDS011;14881;48.092;11.574;2023-05-18T09:25:31;8.13;;;4.40;;
27428;SDS011;14881;48.092;11.574;2023-05-18T09:27:59;8.77;;;4.88;;
27428;SDS011;14881;48.092;11.574;2023-05-18T09:30:26;15.60;;;5.80;;
27428;SDS011;14881;48.092;11.574;2023-05-18T09:32:52;9.13;;;4.65;;
27428;SDS011;14881;48.092;11.574;2023-05-18T09:35:19;7.80;;;4.82;;
27428;SDS011;14881;48.092;11.574;2023-05-18T09:37:47;9.40;;;5.07;;
27428;SDS011;14881;48.092;11.574;2023-05-18T09:40:13;9.35;;;4.70;;
27428;SDS011;14881;48.092;11.574;2023-05-18T09:42:42;7.18;;;4.30;;
27428;SDS011;14881;48.092;11.574;2023-05-18T09:45:14;9.25;;;5.13;;
27428;SDS011;14881;48.092;11.574;2023-05-18T09:47:44;7.43;;;4.82;;
27428;SDS011;14881;48.092;11.574;2023-05-18T09:50:11;7.70;;;5.07;;
27428;SDS011;14881;48.092;11.574;2023-05-18T09:52:39;9.18;;;4.85;;
27428;SDS011;14881;48.092;11.574;2023-05-18T09:55:07;9.07;;;4.68;;
27428;SDS011;14881;48.092;11.574;2023-05-18T09:57:37;8.18;;;4.97;;
27428;SDS011;14881;48.092;11.574;2023-05-18T10:00:06;8.90;;;5.50;;
27428;SDS011;14881;48.092;11.574;2023-05-18T10:02:36;10.63;;;5.90;;
27428;SDS011;14881;48.092;11.574;2023-05-18T10:05:04;8.55;;;5.28;;
27428;SDS011;14881;48.092;11.574;2023-05-18T10:07:32;10.20;;;5.35;;
27428;SDS011;14881;48.092;11.574;2023-05-18T10:10:00;12.63;;;5.88;;
27428;SDS011;14881;48.092;11.574;2023-05-18T10:12:28;9.15;;;5.82;;
27428;SDS011;14881;48.092;11.574;2023-05-18T10:14:54;8.40;;;5.25;;
27428;SDS011;14881;48.092;11.574;2023-05-18T10:17:22;10.77;;;5.63;;
27428;SDS011;14881;48.092;11.574;2023-05-18T10:19:52;8.10;;;5.10;;
27428;SDS011;14881;48.092;11.574;2023-05-18T10:22:21;9.02;;;5.32;;
27428;SDS011;14881;48.092;11.574;2023-05-18T10:24:50;9.50;;;5.55;;
27428;SDS011;14881;48.092;11.574;2023-05-18T10:27:19;12.63;;;5.28;;
27428;SDS011;14881;48.092;11.574;2023-05-18T10:29:51;11.23;;;5.45;;
27428;SDS011;14881;48.092;11.574;2023-05-18T10:32:19;11.32;;;5.35;;
27428;SDS011;14881;48.092;11.574;2023-05-18T10:34:51;9.50;;;5.15;;
27428;SDS011;14881;48.092;11.574;2023-05-18T10:37:20;10.45;;;5.43;;
27428;SDS011;14881;48.092;11.574;2023-05-18T10:39:49;10.95;;;5.00;;
27428;SDS011;14881;48.092;11.574;2023-05-18T10:42:16;8.55;;;5.03;;
27428;SDS011;14881;48.092;11.574;2023-05-18T10:44:44;8.32;;;4.85;;
27428;SDS011;14881;48.092;11.574;2023-05-18T10:47:13;7.75;;;4.90;;
27428;SDS011;14881;48.092;11.574;2023-05-18T10:49:42;10.25;;;5.32;;
27428;SDS011;14881;48.092;11.574;2023-05-18T10:52:12;7.97;;;4.90;;
27428;SDS011;14881;48.092;11.574;2023-05-18T10:54:38;11.82;;;4.60;;
27428;SDS011;14881;48.092;11.574;2023-05-18T10:57:05;7.53;;;5.35;;
27428;SDS011;14881;48.092;11.574;2023-05-18T10:59:38;9.75;;;5.10;;
27428;SDS011;14881;48.092;11.574;2023-05-18T11:02:09;13.48;;;5.13;;
27428;SDS011;14881;48.092;11.574;2023-05-18T11:04:37;9.98;;;5.63;;
27428;SDS011;14881;48.092;11.574;2023-05-18T11:07:08;8.38;;;5.30;;
27428;SDS011;14881;48.092;11.574;2023-05-18T11:09:36;8.60;;;4.63;;
27428;SDS011;14881;48.092;11.574;2023-05-18T11:12:09;9.90;;;5.75;;
27428;SDS011;14881;48.092;11.574;2023-05-18T11:14:46;8.00;;;5.10;;
27428;SDS011;14881;48.092;11.574;2023-05-18T11:17:15;9.27;;;5.18;;
27428;SDS011;14881;48.092;11.574;2023-05-18T11:22:43;9.18;;;4.38;;
27428;SDS011;14881;48.092;11.574;2023-05-18T11:30:48;9.18;;;4.38;;
27428;SDS011;14881;48.092;11.574;2023-05-18T11:33:16;8.23;;;3.85;;
27428;SDS011;14881;48.092;11.574;2023-05-18T11:35:55;11.27;;;4.40;;
27428;SDS011;14881;48.092;11.574;2023-05-18T11:38:25;8.68;;;3.60;;
27428;SDS011;14881;48.092;11.574;2023-05-18T11:41:07;8.23;;;3.85;;
27428;SDS011;14881;48.092;11.574;2023-05-18T11:43:57;7.50;;;4.07;;
27428;SDS011;14881;48.092;11.574;2023-05-18T11:46:33;6.45;;;4.03;;
27428;SDS011;14881;48.092;11.574;2023-05-18T11:49:01;8.10;;;3.78;;
27428;SDS011;14881;48.092;11.574;2023-05-18T11:51:29;9.20;;;3.80;;
27428;SDS011;14881;48.092;11.574;2023-05-18T11:53:56;8.95;;;3.90;;
27428;SDS011;14881;48.092;11.574;2023-05-18T11:56:24;8.15;;;4.40;;
27428;SDS011;14881;48.092;11.574;2023-05-18T12:01:39;8.52;;;3.53;;
27428;SDS011;14881;48.092;11.574;2023-05-18T12:04:07;7.70;;;4.28;;
27428;SDS011;14881;48.092;11.574;2023-05-18T12:06:35;5.35;;;3.78;;
27428;SDS011;14881;48.092;11.574;2023-05-18T12:09:03;6.18;;;3.45;;
27428;SDS011;14881;48.092;11.574;2023-05-18T12:11:30;5.80;;;3.30;;
27428;SDS011;14881;48.092;11.574;2023-05-18T12:13:57;9.68;;;4.18;;
27428;SDS011;14881;48.092;11.574;2023-05-18T12:16:25;7.18;;;3.83;;
27428;SDS011;14881;48.092;11.574;2023-05-18T12:18:52;6.90;;;4.32;;
27428;SDS011;14881;48.092;11.574;2023-05-18T12:21:22;5.28;;;3.10;;
27428;SDS011;14881;48.092;11.574;2023-05-18T12:23:55;8.23;;;3.50;;
27428;SDS011;14881;48.092;11.574;2023-05-18T12:26:22;5.32;;;3.38;;
27428;SDS011;14881;48.092;11.574;2023-05-18T12:28:51;7.00;;;3.67;;
27428;SDS011;14881;48.092;11.574;2023-05-18T12:31:17;6.00;;;3.55;;
27428;SDS011;14881;48.092;11.574;2023-05-18T12:33:44;6.07;;;3.50;;
27428;SDS011;14881;48.092;11.574;2023-05-18T12:36:11;5.68;;;3.58;;
27428;SDS011;14881;48.092;11.574;2023-05-18T12:38:38;6.50;;;3.40;;
27428;SDS011;14881;48.092;11.574;2023-05-18T12:41:05;5.50;;;3.47;;
27428;SDS011;14881;48.092;11.574;2023-05-18T12:43:33;5.25;;;3.63;;
27428;SDS011;14881;48.092;11.574;2023-05-18T12:46:00;10.35;;;3.97;;
27428;SDS011;14881;48.092;11.574;2023-05-18T12:48:33;9.57;;;3.22;;
27428;SDS011;14881;48.092;11.574;2023-05-18T12:51:00;5.97;;;3.22;;
27428;SDS011;14881;48.092;11.574;2023-05-18T12:53:31;6.70;;;3.70;;
27428;SDS011;14881;48.092;11.574;2023-05-18T12:56:06;8.90;;;4.93;;
27428;SDS011;14881;48.092;11.574;2023-05-18T12:58:36;6.80;;;3.53;;
27428;SDS011;14881;48.092;11.574;2023-05-18T13:01:07;5.97;;;3.22;;
27428;SDS011;14881;48.092;11.574;2023-05-18T13:03:34;5.70;;;3.22;;
27428;SDS011;14881;48.092;11.574;2023-05-18T13:06:05;5.65;;;3.20;;
27428;SDS011;14881;48.092;11.574;2023-05-18T13:08:33;5.93;;;3.70;;
27428;SDS011;14881;48.092;11.574;2023-05-18T13:11:00;8.98;;;4.35;;
27428;SDS011;14881;48.092;11.574;2023-05-18T13:16:25;5.80;;;3.55;;
27428;SDS011;14881;48.092;11.574;2023-05-18T13:18:54;5.75;;;3.55;;
27428;SDS011;14881;48.092;11.574;2023-05-18T13:21:21;6.10;;;4.03;;
27428;SDS011;14881;48.092;11.574;2023-05-18T13:23:48;5.35;;;3.72;;
27428;SDS011;14881;48.092;11.574;2023-05-18T13:26:14;6.35;;;3.55;;
27428;SDS011;14881;48.092;11.574;2023-05-18T13:28:43;5.55;;;3.75;;
27428;SDS011;14881;48.092;11.574;2023-05-18T13:31:11;7.82;;;4.35;;
27428;SDS011;14881;48.092;11.574;2023-05-18T13:33:38;7.80;;;4.13;;
27428;SDS011;14881;48.092;11.574;2023-05-18T13:36:05;6.15;;;3.80;;
27428;SDS011;14881;48.092;11.574;2023-05-18T13:38:32;10.02;;;4.22;;
27428;SDS011;14881;48.092;11.574;2023-05-18T13:41:01;7.35;;;4.07;;
27428;SDS011;14881;48.092;11.574;2023-05-18T13:43:29;8.02;;;3.83;;
27428;SDS011;14881;48.092;11.574;2023-05-18T13:45:55;6.88;;;4.20;;
27428;SDS011;14881;48.092;11.574;2023-05-18T13:48:22;6.30;;;3.88;;
27428;SDS011;14881;48.092;11.574;2023-05-18T13:50:49;5.75;;;3.65;;
27428;SDS011;14881;48.092;11.574;2023-05-18T13:53:16;7.38;;;3.92;;
27428;SDS011;14881;48.092;11.574;2023-05-18T13:55:42;9.52;;;3.85;;
27428;SDS011;14881;48.092;11.574;2023-05-18T13:58:08;4.95;;;3.50;;
27428;SDS011;14881;48.092;11.574;2023-05-18T14:00:35;6.57;;;3.97;;
27428;SDS011;14881;48.092;11.574;2023-05-18T14:03:02;9.23;;;4.22;;
27428;SDS011;14881;48.092;11.574;2023-05-18T14:05:29;5.65;;;3.83;;
27428;SDS011;14881;48.092;11.574;2023-05-18T14:07:56;9.30;;;4.10;;
27428;SDS011;14881;48.092;11.574;2023-05-18T14:10:22;7.35;;;3.95;;
27428;SDS011;14881;48.092;11.574;2023-05-18T14:12:49;8.95;;;4.32;;
27428;SDS011;14881;48.092;11.574;2023-05-18T14:15:15;8.65;;;4.20;;
27428;SDS011;14881;48.092;11.574;2023-05-18T14:17:42;8.18;;;4.35;;
27428;SDS011;14881;48.092;11.574;2023-05-18T14:20:09;8.38;;;4.63;;
27428;SDS011;14881;48.092;11.574;2023-05-18T14:22:36;8.23;;;4.68;;
27428;SDS011;14881;48.092;11.574;2023-05-18T14:25:04;6.97;;;4.07;;
27428;SDS011;14881;48.092;11.574;2023-05-18T14:27:31;8.18;;;4.10;;
27428;SDS011;14881;48.092;11.574;2023-05-18T14:29:57;8.25;;;4.38;;
27428;SDS011;14881;48.092;11.574;2023-05-18T14:32:24;8.80;;;4.63;;
27428;SDS011;14881;48.092;11.574;2023-05-18T14:34:50;8.95;;;4.60;;
27428;SDS011;14881;48.092;11.574;2023-05-18T14:37:19;5.93;;;3.97;;
27428;SDS011;14881;48.092;11.574;2023-05-18T14:39:46;8.10;;;4.07;;
27428;SDS011;14881;48.092;11.574;2023-05-18T14:42:13;7.35;;;4.00;;